TimeCDT,TemperatureF,Dew PointF,Humidity,Sea Level PressureIn,VisibilityMPH,Wind Direction,Wind SpeedMPH,Gust SpeedMPH,PrecipitationIn,Events,Conditions,WindDirDegrees,DateUTC
12:15 AM,64.4,55.4,73,29.74,10.0,SSE,8.1,16.1,N/A,,Clear,160,2013-04-30 05:15:00
12:35 AM,64.4,55.4,73,29.74,10.0,SSE,8.1,-,N/A,,Clear,150,2013-04-30 05:35:00
12:55 AM,64.4,55.4,73,29.74,10.0,SSE,6.9,-,N/A,,Clear,160,2013-04-30 05:55:00
1:15 AM,62.6,55.4,77,29.73,10.0,SSE,8.1,-,N/A,,Clear,150,2013-04-30 06:15:00
1:35 AM,62.6,55.4,77,29.73,10.0,SSE,10.4,-,N/A,,Clear,160,2013-04-30 06:35:00
1:55 AM,62.6,55.4,77,29.73,10.0,SE,9.2,16.1,N/A,,Clear,140,2013-04-30 06:55:00
2:15 AM,62.6,55.4,77,29.74,10.0,SE,5.8,-,N/A,,Clear,140,2013-04-30 07:15:00
2:55 AM,62.6,55.4,77,29.74,10.0,SSE,9.2,-,N/A,,Clear,150,2013-04-30 07:55:00
3:15 AM,62.6,55.4,77,29.75,10.0,SSE,8.1,-,N/A,,Clear,150,2013-04-30 08:15:00
3:35 AM,62.6,55.4,77,29.75,10.0,SE,6.9,-,N/A,,Clear,140,2013-04-30 08:35:00
3:55 AM,62.6,55.4,77,29.75,10.0,SSE,5.8,-,N/A,,Clear,160,2013-04-30 08:55:00
4:15 AM,62.6,55.4,77,29.75,10.0,SE,9.2,-,N/A,,Clear,140,2013-04-30 09:15:00
4:35 AM,62.6,57.2,82,29.75,10.0,SSE,8.1,-,N/A,,Clear,150,2013-04-30 09:35:00
4:55 AM,60.8,55.4,82,29.75,10.0,SSE,4.6,-,N/A,,Clear,150,2013-04-30 09:55:00
5:15 AM,62.6,57.2,82,29.77,10.0,SSE,5.8,-,N/A,,Clear,160,2013-04-30 10:15:00
5:35 AM,62.6,57.2,82,29.77,10.0,SSE,6.9,-,N/A,,Clear,160,2013-04-30 10:35:00
5:55 AM,62.6,57.2,82,29.77,10.0,SSE,6.9,-,N/A,,Clear,150,2013-04-30 10:55:00
6:15 AM,62.6,57.2,82,29.78,10.0,SSE,6.9,-,N/A,,Clear,160,2013-04-30 11:15:00
6:35 AM,62.6,57.2,82,29.78,10.0,SSE,6.9,-,N/A,,Clear,160,2013-04-30 11:35:00
6:55 AM,62.6,57.2,82,29.78,10.0,SSE,8.1,-,N/A,,Clear,160,2013-04-30 11:55:00
7:15 AM,62.6,57.2,82,29.78,10.0,SSE,8.1,-,N/A,,Clear,160,2013-04-30 12:15:00
7:35 AM,62.6,57.2,82,29.78,10.0,South,5.8,-,N/A,,Clear,180,2013-04-30 12:35:00
7:55 AM,64.4,59.0,83,29.78,10.0,South,11.5,16.1,N/A,,Clear,170,2013-04-30 12:55:00
8:15 AM,66.2,59.0,78,29.77,10.0,South,8.1,-,N/A,,Clear,190,2013-04-30 13:15:00
8:35 AM,68.0,60.8,78,29.77,10.0,South,9.2,-,N/A,,Clear,180,2013-04-30 13:35:00
8:55 AM,71.6,60.8,69,29.78,10.0,South,9.2,17.3,N/A,,Clear,190,2013-04-30 13:55:00
9:15 AM,71.6,60.8,69,29.78,10.0,SSW,6.9,-,N/A,,Clear,210,2013-04-30 14:15:00
9:35 AM,73.4,60.8,65,29.78,10.0,SW,6.9,16.1,N/A,,Clear,220,2013-04-30 14:35:00
9:55 AM,73.4,57.2,57,29.77,10.0,SW,6.9,-,N/A,,Clear,220,2013-04-30 14:55:00
10:15 AM,78.8,57.2,47,29.78,10.0,SW,10.4,19.6,N/A,,Clear,220,2013-04-30 15:15:00
10:35 AM,78.8,55.4,44,29.78,10.0,WSW,12.7,21.9,N/A,,Clear,240,2013-04-30 15:35:00
10:55 AM,78.8,55.4,44,29.78,10.0,WSW,11.5,21.9,N/A,,Clear,240,2013-04-30 15:55:00
11:15 AM,80.6,55.4,42,29.78,10.0,SW,10.4,26.5,N/A,,Clear,230,2013-04-30 16:15:00
11:35 AM,82.4,53.6,37,29.78,10.0,WSW,16.1,25.3,N/A,,Clear,250,2013-04-30 16:35:00
11:55 AM,82.4,53.6,37,29.79,10.0,WSW,13.8,21.9,N/A,,Clear,240,2013-04-30 16:55:00
12:15 PM,82.4,51.8,35,29.79,10.0,WSW,16.1,25.3,N/A,,Clear,240,2013-04-30 17:15:00
12:35 PM,84.2,51.8,33,29.78,10.0,WSW,13.8,24.2,N/A,,Clear,240,2013-04-30 17:35:00
12:55 PM,84.2,51.8,33,29.79,10.0,WSW,16.1,24.2,N/A,,Clear,240,2013-04-30 17:55:00
1:15 PM,84.2,51.8,33,29.78,10.0,WSW,17.3,26.5,N/A,,Clear,250,2013-04-30 18:15:00
1:35 PM,87.8,51.8,29,29.78,10.0,SW,9.2,21.9,N/A,,Clear,230,2013-04-30 18:35:00
1:55 PM,87.8,51.8,29,29.78,10.0,SW,11.5,19.6,N/A,,Clear,220,2013-04-30 18:55:00
2:15 PM,87.8,51.8,29,29.78,10.0,SSW,11.5,21.9,N/A,,Clear,210,2013-04-30 19:15:00
2:35 PM,87.8,51.8,29,29.78,10.0,SW,12.7,19.6,N/A,,Clear,220,2013-04-30 19:35:00
3:15 PM,87.8,51.8,29,29.77,10.0,SSW,9.2,19.6,N/A,,Clear,210,2013-04-30 20:15:00
3:35 PM,87.8,50.0,27,29.77,10.0,SW,8.1,19.6,N/A,,Clear,220,2013-04-30 20:35:00
3:55 PM,87.8,51.8,29,29.77,10.0,SSW,8.1,21.9,N/A,,Clear,210,2013-04-30 20:55:00
4:15 PM,87.8,51.8,29,29.78,10.0,SSW,9.2,19.6,N/A,,Clear,210,2013-04-30 21:15:00
4:35 PM,87.8,51.8,29,29.78,10.0,SW,10.4,19.6,N/A,,Clear,220,2013-04-30 21:35:00
4:55 PM,86.0,50.0,29,29.78,10.0,SSW,9.2,19.6,N/A,,Clear,200,2013-04-30 21:55:00
5:15 PM,86.0,50.0,29,29.79,10.0,SW,8.1,17.3,N/A,,Clear,220,2013-04-30 22:15:00
5:35 PM,86.0,50.0,29,29.79,10.0,SW,6.9,19.6,N/A,,Clear,220,2013-04-30 22:35:00
5:55 PM,84.2,50.0,30,29.80,10.0,SW,5.8,18.4,N/A,,Clear,230,2013-04-30 22:55:00
6:15 PM,84.2,50.0,30,29.81,10.0,SSW,6.9,-,N/A,,Clear,210,2013-04-30 23:15:00
6:35 PM,82.4,48.2,30,29.82,10.0,SSW,4.6,18.4,N/A,,Clear,200,2013-04-30 23:35:00
6:55 PM,82.4,48.2,30,29.83,10.0,SW,8.1,-,N/A,,Clear,220,2013-04-30 23:55:00
7:15 PM,80.6,50.0,34,29.83,10.0,SSW,5.8,-,N/A,,Clear,210,2013-05-01 00:15:00
7:35 PM,80.6,50.0,34,29.83,10.0,SSW,4.6,-,N/A,,Clear,210,2013-05-01 00:35:00
7:55 PM,78.8,51.8,39,29.84,10.0,South,5.8,-,N/A,,Clear,180,2013-05-01 00:55:00
8:15 PM,77.0,51.8,41,29.85,10.0,South,4.6,-,N/A,,Clear,180,2013-05-01 01:15:00
8:35 PM,75.2,51.8,44,29.85,10.0,SSE,5.8,-,N/A,,Clear,160,2013-05-01 01:35:00
8:55 PM,73.4,53.6,50,29.86,10.0,South,6.9,-,N/A,,Clear,170,2013-05-01 01:55:00
9:15 PM,73.4,53.6,50,29.87,10.0,South,5.8,-,N/A,,Clear,170,2013-05-01 02:15:00
9:35 PM,73.4,53.6,50,29.88,10.0,South,5.8,-,N/A,,Clear,170,2013-05-01 02:35:00
9:55 PM,71.6,53.6,53,29.88,10.0,South,8.1,-,N/A,,Clear,170,2013-05-01 02:55:00
10:15 PM,71.6,53.6,53,29.89,10.0,South,6.9,-,N/A,,Clear,170,2013-05-01 03:15:00
10:35 PM,71.6,53.6,53,29.89,10.0,South,4.6,-,N/A,,Clear,170,2013-05-01 03:35:00
10:55 PM,71.6,53.6,53,29.90,10.0,South,6.9,-,N/A,,Clear,180,2013-05-01 03:55:00
11:15 PM,71.6,53.6,53,29.91,10.0,South,6.9,-,N/A,,Clear,170,2013-05-01 04:15:00
11:35 PM,71.6,53.6,53,29.91,10.0,South,8.1,-,N/A,,Clear,180,2013-05-01 04:35:00